createdAt,value
2023-05-09T00:01:06.940Z,13.80
2023-05-09T00:03:33.657Z,12.80
2023-05-09T00:06:01.521Z,13.60
2023-05-09T00:08:28.484Z,13.50
2023-05-09T00:10:55.231Z,14.30
2023-05-09T00:13:23.092Z,14.60
2023-05-09T00:15:53.408Z,12.10
2023-05-09T00:18:21.574Z,14.10
2023-05-09T00:20:49.397Z,9.70
2023-05-09T00:23:16.274Z,9.10
2023-05-09T00:25:43.192Z,11.20
2023-05-09T00:28:10.326Z,9.80
2023-05-09T00:30:37.884Z,11.50
2023-05-09T00:33:05.685Z,13.00
2023-05-09T00:35:32.698Z,8.70
2023-05-09T00:37:59.644Z,9.20
2023-05-09T00:40:26.385Z,9.10
2023-05-09T00:42:55.373Z,13.20
2023-05-09T00:45:22.210Z,10.10
2023-05-09T00:47:49.086Z,13.90
2023-05-09T00:50:16.516Z,11.70
2023-05-09T00:52:43.354Z,14.30
2023-05-09T00:55:10.421Z,13.70
2023-05-09T00:57:38.107Z,12.20
2023-05-09T01:00:06.128Z,12.50
2023-05-09T01:02:33.444Z,12.60
2023-05-09T01:05:01.452Z,10.50
2023-05-09T01:07:37.820Z,9.80
2023-05-09T01:10:16.273Z,10.80
2023-05-09T01:15:31.650Z,10.00
2023-05-09T01:18:25.705Z,13.00
2023-05-09T01:21:04.145Z,11.70
2023-05-09T01:24:09.477Z,7.90
2023-05-09T01:27:13.577Z,10.80
2023-05-09T01:29:59.582Z,10.60
2023-05-09T01:32:27.724Z,8.80
2023-05-09T01:34:56.137Z,9.60
2023-05-09T01:37:35.873Z,13.70
2023-05-09T01:40:20.934Z,14.30
2023-05-09T01:42:57.978Z,15.00
2023-05-09T01:45:24.759Z,17.50
2023-05-09T01:47:51.564Z,29.70
2023-05-09T01:50:18.849Z,15.50
2023-05-09T01:52:49.597Z,21.60
2023-05-09T01:55:16.701Z,19.70
2023-05-09T01:57:45.212Z,16.60
2023-05-09T02:00:13.318Z,10.60
2023-05-09T02:02:40.544Z,15.50
2023-05-09T02:05:08.970Z,13.90
2023-05-09T02:07:35.755Z,16.60
2023-05-09T02:10:02.923Z,13.80
2023-05-09T02:12:29.889Z,18.40
2023-05-09T02:14:56.787Z,15.70
2023-05-09T02:17:23.665Z,16.70
2023-05-09T02:19:50.431Z,22.50
2023-05-09T02:22:17.249Z,17.50
2023-05-09T02:24:47.060Z,16.10
2023-05-09T02:27:14.215Z,18.40
2023-05-09T02:29:49.003Z,12.40
2023-05-09T02:32:18.723Z,12.00
2023-05-09T02:34:46.326Z,13.00
2023-05-09T02:37:13.138Z,26.70
2023-05-09T02:39:40.159Z,23.80
2023-05-09T02:42:11.096Z,23.10
2023-05-09T02:44:40.670Z,21.50
2023-05-09T02:47:07.868Z,15.10
2023-05-09T02:49:35.930Z,17.60
2023-05-09T02:52:03.496Z,18.80
2023-05-09T02:54:30.337Z,22.30
2023-05-09T02:56:57.272Z,16.30
2023-05-09T02:59:25.136Z,14.60
2023-05-09T03:04:19.642Z,18.90
2023-05-09T03:06:46.402Z,20.30
2023-05-09T03:09:13.727Z,19.80
2023-05-09T03:11:40.672Z,20.10
2023-05-09T03:14:08.077Z,17.70
2023-05-09T03:16:35.391Z,23.00
2023-05-09T03:19:03.148Z,15.20
2023-05-09T03:21:31.487Z,15.40
2023-05-09T03:23:58.886Z,15.90
2023-05-09T03:26:25.987Z,13.70
2023-05-09T03:28:53.691Z,13.60
2023-05-09T03:31:20.749Z,15.90
2023-05-09T03:33:47.835Z,12.70
2023-05-09T03:36:14.934Z,14.60
2023-05-09T03:38:42.805Z,16.90
2023-05-09T03:41:09.878Z,17.70
2023-05-09T03:43:36.649Z,22.60
2023-05-09T03:46:03.530Z,16.80
2023-05-09T03:48:32.215Z,20.70
2023-05-09T03:50:59.175Z,16.40
2023-05-09T03:53:26.969Z,20.10
2023-05-09T03:55:54.829Z,18.50
2023-05-09T03:58:23.287Z,15.80
2023-05-09T04:00:50.625Z,15.10
2023-05-09T04:03:20.291Z,21.80
2023-05-09T04:05:47.739Z,19.60
2023-05-09T04:08:23.036Z,29.50
2023-05-09T04:10:50.491Z,35.00
2023-05-09T04:13:17.502Z,50.10
2023-05-09T04:15:45.452Z,51.60
2023-05-09T04:18:12.652Z,45.00
2023-05-09T04:20:39.491Z,61.40
2023-05-09T04:23:06.540Z,48.50
2023-05-09T04:25:33.852Z,42.60
2023-05-09T04:28:01.771Z,31.00
2023-05-09T04:30:29.089Z,26.20
2023-05-09T04:32:56.091Z,18.30
2023-05-09T04:35:23.102Z,15.70
2023-05-09T04:37:51.452Z,17.60
2023-05-09T04:40:18.762Z,16.70
2023-05-09T04:42:56.841Z,13.40
2023-05-09T04:45:26.243Z,13.30
2023-05-09T04:47:53.138Z,11.60
2023-05-09T04:50:20.117Z,12.30
2023-05-09T04:52:47.002Z,10.10
2023-05-09T04:55:14.991Z,10.00
2023-05-09T04:57:44.422Z,20.60
2023-05-09T05:00:12.295Z,13.30
2023-05-09T05:02:40.349Z,8.20
2023-05-09T05:05:11.954Z,11.80
2023-05-09T05:07:42.070Z,10.40
2023-05-09T05:10:10.333Z,10.90
2023-05-09T05:12:38.090Z,10.60
2023-05-09T05:15:05.968Z,14.20
2023-05-09T05:17:33.426Z,10.80
2023-05-09T05:20:00.716Z,10.70
2023-05-09T05:22:28.122Z,9.40
2023-05-09T05:24:55.515Z,15.00
2023-05-09T05:27:22.470Z,9.90
2023-05-09T05:29:49.659Z,8.30
2023-05-09T05:32:16.973Z,10.20
2023-05-09T05:34:43.713Z,8.40
2023-05-09T05:37:10.683Z,9.30
2023-05-09T05:39:37.679Z,7.70
2023-05-09T05:42:04.803Z,11.90
2023-05-09T05:44:32.258Z,8.40
2023-05-09T05:46:59.096Z,10.50
2023-05-09T05:49:26.657Z,16.30
2023-05-09T05:51:53.709Z,7.70
2023-05-09T05:54:21.807Z,14.20
2023-05-09T05:56:48.723Z,9.10
2023-05-09T05:59:15.778Z,9.70
2023-05-09T06:01:42.776Z,8.20
2023-05-09T06:04:09.933Z,7.80
2023-05-09T06:06:37.107Z,7.00
2023-05-09T06:09:03.931Z,7.30
2023-05-09T06:11:30.862Z,16.00
2023-05-09T06:13:58.977Z,8.70
2023-05-09T06:16:27.384Z,6.90
2023-05-09T06:18:55.969Z,10.60
2023-05-09T06:21:23.260Z,9.10
2023-05-09T06:24:04.293Z,8.90
2023-05-09T06:26:35.961Z,13.20
2023-05-09T06:29:03.456Z,5.70
2023-05-09T06:31:30.536Z,7.40
2023-05-09T06:33:57.570Z,13.90
2023-05-09T06:36:24.388Z,10.80
2023-05-09T06:38:51.173Z,10.50
2023-05-09T06:41:17.967Z,7.80
2023-05-09T06:43:45.139Z,7.40
2023-05-09T06:46:11.986Z,8.50
2023-05-09T06:48:39.036Z,6.30
2023-05-09T06:51:05.945Z,8.70
2023-05-09T06:53:32.801Z,9.90
2023-05-09T06:55:59.861Z,6.20
2023-05-09T06:58:27.232Z,5.20
2023-05-09T07:00:53.984Z,18.30
2023-05-09T07:03:20.792Z,7.10
2023-05-09T07:05:47.767Z,6.10
2023-05-09T07:08:14.585Z,7.70
2023-05-09T07:10:41.433Z,6.30
2023-05-09T07:13:08.335Z,4.70
2023-05-09T07:15:41.986Z,9.80
2023-05-09T07:18:09.915Z,4.00
2023-05-09T07:20:37.058Z,5.70
2023-05-09T07:23:04.244Z,10.30
2023-05-09T07:25:31.086Z,5.80
2023-05-09T07:27:57.785Z,4.70
2023-05-09T07:30:24.616Z,4.90
2023-05-09T07:32:51.562Z,5.40
2023-05-09T07:35:19.045Z,3.80
2023-05-09T07:37:45.840Z,7.10
2023-05-09T07:40:12.979Z,7.50
2023-05-09T07:42:40.200Z,5.80
2023-05-09T07:45:07.439Z,10.50
2023-05-09T07:47:34.696Z,5.60
2023-05-09T07:50:01.557Z,9.10
2023-05-09T07:52:28.577Z,4.00
2023-05-09T07:54:55.354Z,9.50
2023-05-09T07:57:22.421Z,4.80
2023-05-09T07:59:49.188Z,8.10
2023-05-09T08:02:16.387Z,5.20
2023-05-09T08:04:43.411Z,9.20
2023-05-09T08:07:11.233Z,8.50
2023-05-09T08:09:37.979Z,10.20
2023-05-09T08:12:05.468Z,8.40
2023-05-09T08:14:32.308Z,10.70
2023-05-09T08:16:59.739Z,15.30
2023-05-09T08:19:26.813Z,29.90
2023-05-09T08:21:53.874Z,11.90
2023-05-09T08:24:20.605Z,25.80
2023-05-09T08:26:47.437Z,12.60
2023-05-09T08:29:14.295Z,29.90
2023-05-09T08:31:41.208Z,85.00
2023-05-09T08:34:08.416Z,11.30
2023-05-09T08:36:38.887Z,33.30
2023-05-09T08:39:05.666Z,41.10
2023-05-09T08:41:35.312Z,19.10
2023-05-09T08:44:02.396Z,10.10
2023-05-09T08:46:32.065Z,14.00
2023-05-09T08:48:58.925Z,21.90
2023-05-09T08:51:25.700Z,10.30
2023-05-09T08:53:52.557Z,8.80
2023-05-09T08:56:19.494Z,7.60
2023-05-09T08:58:46.514Z,8.10
2023-05-09T09:01:13.581Z,9.00
2023-05-09T09:03:46.979Z,11.00
2023-05-09T09:06:13.883Z,10.20
2023-05-09T09:08:42.409Z,7.40
2023-05-09T09:11:12.861Z,5.20
2023-05-09T09:13:40.637Z,10.10
2023-05-09T09:16:14.235Z,6.40
2023-05-09T09:18:40.974Z,26.80
2023-05-09T09:21:09.426Z,19.50
2023-05-09T09:23:37.090Z,12.20
2023-05-09T09:26:04.366Z,9.30
2023-05-09T09:28:32.373Z,4.80
2023-05-09T09:30:59.256Z,9.70
2023-05-09T09:33:26.578Z,6.90
2023-05-09T09:35:54.979Z,6.80
2023-05-09T09:38:22.579Z,7.50
2023-05-09T09:40:55.884Z,7.70
2023-05-09T09:43:41.029Z,6.00
2023-05-09T09:46:09.296Z,8.70
2023-05-09T09:48:37.664Z,10.00
2023-05-09T09:51:09.469Z,5.60
2023-05-09T09:53:42.866Z,7.30
2023-05-09T09:56:09.613Z,6.60
2023-05-09T09:58:36.545Z,3.70
2023-05-09T10:01:20.230Z,4.80
2023-05-09T10:03:47.539Z,10.10
2023-05-09T10:06:15.419Z,6.20
2023-05-09T10:08:46.226Z,9.10
2023-05-09T10:11:13.651Z,4.80
2023-05-09T10:13:40.731Z,7.70
2023-05-09T10:16:08.151Z,2.90
2023-05-09T10:18:35.685Z,5.00
2023-05-09T10:21:04.569Z,3.50
2023-05-09T10:23:33.868Z,9.00
2023-05-09T10:26:03.501Z,12.70
2023-05-09T10:28:32.977Z,4.20
2023-05-09T10:31:01.167Z,22.70
2023-05-09T10:33:33.946Z,5.10
2023-05-09T10:36:00.661Z,4.00
2023-05-09T10:38:27.366Z,4.40
2023-05-09T10:40:54.168Z,3.80
2023-05-09T10:43:23.525Z,2.90
2023-05-09T10:48:18.222Z,6.10
2023-05-09T10:50:45.789Z,4.30
2023-05-09T10:53:18.464Z,5.90
2023-05-09T10:55:50.517Z,3.80
2023-05-09T10:58:19.523Z,15.40
2023-05-09T11:00:47.667Z,3.00
2023-05-09T11:03:14.566Z,5.00
2023-05-09T11:05:41.604Z,4.60
2023-05-09T11:08:18.781Z,3.80
2023-05-09T11:10:45.625Z,4.60
2023-05-09T11:13:12.645Z,3.10
2023-05-09T11:16:12.036Z,2.80
2023-05-09T11:18:52.186Z,4.60
2023-05-09T11:21:19.853Z,13.90
2023-05-09T11:23:47.373Z,6.40
2023-05-09T11:26:15.542Z,6.70
2023-05-09T11:28:42.396Z,4.90
2023-05-09T11:31:14.513Z,5.50
2023-05-09T11:33:42.284Z,8.10
2023-05-09T11:36:29.172Z,11.10
2023-05-09T11:39:06.593Z,9.60
2023-05-09T11:41:43.303Z,9.60
2023-05-09T11:44:17.832Z,7.60
2023-05-09T11:46:45.400Z,5.20
2023-05-09T11:49:12.541Z,5.60
2023-05-09T11:51:39.536Z,3.30
2023-05-09T11:54:07.000Z,5.00
2023-05-09T11:56:34.812Z,14.80
2023-05-09T11:59:02.029Z,7.90
2023-05-09T12:01:29.330Z,8.60
2023-05-09T12:03:57.676Z,13.80
2023-05-09T12:06:29.293Z,7.30
2023-05-09T12:08:58.893Z,4.00
2023-05-09T12:11:25.657Z,4.60
2023-05-09T12:13:52.475Z,9.00
2023-05-09T12:16:19.575Z,5.60
2023-05-09T12:18:47.840Z,4.70
2023-05-09T12:21:15.022Z,4.50
2023-05-09T12:23:41.767Z,4.70
2023-05-09T12:26:09.040Z,4.10
2023-05-09T12:28:35.821Z,2.60
2023-05-09T12:31:03.435Z,6.80
2023-05-09T12:33:30.470Z,5.90
2023-05-09T12:36:06.488Z,8.10
2023-05-09T12:38:34.074Z,4.40
2023-05-09T12:41:18.246Z,8.00
2023-05-09T12:43:55.102Z,6.30
2023-05-09T12:46:22.008Z,5.00
2023-05-09T12:48:48.943Z,5.60
2023-05-09T12:51:20.262Z,3.80
2023-05-09T12:53:47.093Z,11.00
2023-05-09T12:56:18.130Z,6.10
2023-05-09T12:58:49.608Z,6.20
2023-05-09T13:01:17.279Z,9.40
2023-05-09T13:03:44.299Z,4.90
2023-05-09T13:06:12.689Z,5.50
2023-05-09T13:08:40.179Z,5.70
2023-05-09T13:13:41.940Z,8.40
2023-05-09T13:16:10.333Z,4.90
2023-05-09T13:18:38.560Z,16.00
2023-05-09T13:21:05.368Z,4.10
2023-05-09T13:23:32.180Z,13.30
2023-05-09T13:25:59.024Z,10.40
2023-05-09T13:28:25.991Z,5.70
2023-05-09T13:30:52.760Z,3.40
2023-05-09T13:33:25.849Z,6.60
2023-05-09T13:35:53.593Z,10.00
2023-05-09T13:38:20.600Z,3.30
2023-05-09T13:40:47.319Z,3.20
2023-05-09T13:43:14.020Z,6.30
2023-05-09T13:45:40.792Z,3.50
2023-05-09T13:48:07.912Z,6.00
2023-05-09T13:50:34.687Z,3.00
2023-05-09T13:53:01.587Z,3.60
2023-05-09T13:55:30.216Z,3.10
2023-05-09T13:57:57.125Z,4.00
2023-05-09T14:00:26.830Z,4.20
2023-05-09T14:02:53.699Z,4.50
2023-05-09T14:05:20.527Z,4.30
2023-05-09T14:07:47.360Z,4.20
2023-05-09T14:10:14.132Z,5.40
2023-05-09T14:15:10.468Z,6.10
2023-05-09T14:17:37.433Z,5.60
2023-05-09T14:20:05.910Z,4.50
2023-05-09T14:22:32.991Z,15.40
2023-05-09T14:24:59.807Z,5.30
2023-05-09T14:27:26.922Z,7.80
2023-05-09T14:29:53.727Z,9.30
2023-05-09T14:32:20.569Z,6.30
2023-05-09T14:34:49.067Z,9.20
2023-05-09T14:37:16.382Z,8.00
2023-05-09T14:39:44.618Z,5.30
2023-05-09T14:44:40.647Z,3.80
2023-05-09T14:47:08.901Z,5.30
2023-05-09T14:49:36.281Z,4.70
2023-05-09T14:52:03.293Z,3.90
2023-05-09T14:54:31.083Z,8.20
2023-05-09T14:56:58.884Z,6.00
2023-05-09T14:59:25.654Z,6.30
2023-05-09T15:01:53.075Z,11.50
2023-05-09T15:04:19.825Z,5.70
2023-05-09T15:06:46.675Z,18.90
2023-05-09T15:09:14.020Z,13.00
2023-05-09T15:11:48.445Z,10.90
2023-05-09T15:14:16.035Z,11.40
2023-05-09T15:16:42.801Z,3.70
2023-05-09T15:19:09.593Z,3.70
2023-05-09T15:21:36.503Z,11.30
2023-05-09T15:24:04.207Z,11.60
2023-05-09T15:26:31.767Z,9.30
2023-05-09T15:28:58.576Z,3.70
2023-05-09T15:31:25.642Z,2.70
2023-05-09T15:33:52.636Z,7.10
2023-05-09T15:36:19.650Z,3.10
2023-05-09T15:38:49.101Z,8.00
2023-05-09T15:41:16.316Z,9.20
2023-05-09T15:43:43.597Z,11.00
2023-05-09T15:46:10.466Z,9.80
2023-05-09T15:48:37.420Z,7.50
2023-05-09T15:51:04.667Z,4.80
2023-05-09T15:53:32.117Z,5.40
2023-05-09T15:55:58.891Z,11.90
2023-05-09T15:58:25.721Z,17.60
2023-05-09T16:00:52.474Z,13.40
2023-05-09T16:03:19.527Z,13.50
2023-05-09T16:05:46.526Z,13.90
2023-05-09T16:08:13.893Z,6.80
2023-05-09T16:10:40.646Z,10.00
2023-05-09T16:13:08.835Z,15.00
2023-05-09T16:15:35.940Z,6.20
2023-05-09T16:18:03.232Z,8.40
2023-05-09T16:20:30.991Z,6.80
2023-05-09T16:22:58.017Z,13.90
2023-05-09T16:25:24.804Z,8.40
2023-05-09T16:27:53.039Z,6.60
2023-05-09T16:30:19.868Z,15.10
2023-05-09T16:32:46.857Z,18.40
2023-05-09T16:35:13.691Z,7.70
2023-05-09T16:37:40.536Z,16.00
2023-05-09T16:40:08.145Z,10.50
2023-05-09T16:42:35.498Z,18.30
2023-05-09T16:45:02.322Z,18.20
2023-05-09T16:47:29.372Z,20.00
2023-05-09T16:49:56.221Z,18.10
2023-05-09T16:52:23.362Z,19.90
2023-05-09T16:54:50.252Z,15.20
2023-05-09T16:57:17.241Z,38.00
2023-05-09T16:59:44.146Z,25.80
2023-05-09T17:02:10.914Z,21.30
2023-05-09T17:04:37.984Z,20.50
2023-05-09T17:07:05.229Z,19.20
2023-05-09T17:09:32.060Z,23.40
2023-05-09T17:11:59.967Z,27.80
2023-05-09T17:14:26.950Z,27.60
2023-05-09T17:16:54.293Z,27.90
2023-05-09T17:19:22.847Z,62.20
2023-05-09T17:21:49.715Z,34.30
2023-05-09T17:24:16.722Z,15.80
2023-05-09T17:26:43.446Z,41.10
2023-05-09T17:29:10.188Z,57.70
2023-05-09T17:31:37.393Z,60.90
2023-05-09T17:34:04.906Z,35.20
2023-05-09T17:36:32.930Z,46.70
2023-05-09T17:39:00.281Z,33.20
2023-05-09T17:41:27.118Z,20.10
2023-05-09T17:43:56.745Z,16.10
2023-05-09T17:46:23.712Z,16.70
2023-05-09T17:48:50.767Z,20.40
2023-05-09T17:51:17.690Z,21.80
2023-05-09T17:53:44.549Z,33.40
2023-05-09T17:56:11.300Z,45.10
2023-05-09T17:58:38.289Z,66.10
2023-05-09T18:01:05.095Z,70.40
2023-05-09T18:03:32.819Z,74.30
2023-05-09T18:05:59.925Z,77.10
2023-05-09T18:08:27.178Z,75.00
2023-05-09T18:10:54.138Z,70.90
2023-05-09T18:13:21.048Z,60.10
2023-05-09T18:15:47.979Z,47.10
2023-05-09T18:18:17.871Z,48.80
2023-05-09T18:20:46.461Z,55.70
2023-05-09T18:23:14.239Z,54.60
2023-05-09T18:25:41.426Z,56.50
2023-05-09T18:28:08.733Z,68.60
2023-05-09T18:30:36.024Z,47.80
2023-05-09T18:33:03.176Z,48.70
2023-05-09T18:35:31.019Z,39.20
2023-05-09T18:37:57.869Z,33.80
2023-05-09T18:40:24.705Z,26.40
2023-05-09T18:42:51.522Z,27.10
2023-05-09T18:45:18.398Z,27.70
2023-05-09T18:47:45.639Z,33.20
2023-05-09T18:50:13.229Z,27.60
2023-05-09T18:52:40.172Z,24.30
2023-05-09T18:55:07.296Z,21.10
2023-05-09T18:57:34.175Z,18.60
2023-05-09T19:00:01.500Z,25.70
2023-05-09T19:02:29.575Z,23.40
2023-05-09T19:04:56.417Z,23.10
2023-05-09T19:07:23.568Z,19.00
2023-05-09T19:09:50.808Z,15.60
2023-05-09T19:12:17.618Z,21.40
2023-05-09T19:14:44.427Z,19.00
2023-05-09T19:17:11.330Z,25.10
2023-05-09T19:19:38.108Z,26.60
2023-05-09T19:22:05.559Z,21.10
2023-05-09T19:24:32.614Z,28.90
2023-05-09T19:26:59.636Z,23.50
2023-05-09T19:29:26.418Z,18.70
2023-05-09T19:31:53.080Z,20.80
2023-05-09T19:34:19.884Z,18.70
2023-05-09T19:36:46.649Z,21.40
2023-05-09T19:39:13.672Z,19.60
2023-05-09T19:41:40.889Z,17.00
2023-05-09T19:44:07.778Z,21.70
2023-05-09T19:46:37.378Z,14.20
2023-05-09T19:49:04.416Z,16.40
2023-05-09T19:51:31.283Z,11.50
2023-05-09T19:53:58.073Z,12.80
2023-05-09T19:56:25.164Z,13.90
2023-05-09T19:58:52.044Z,14.50
2023-05-09T20:01:19.499Z,16.60
2023-05-09T20:03:46.626Z,21.10
2023-05-09T20:06:13.824Z,15.80
2023-05-09T20:08:40.785Z,13.40
2023-05-09T20:11:07.524Z,18.40
2023-05-09T20:13:35.803Z,12.60
2023-05-09T20:16:03.041Z,10.50
2023-05-09T20:18:32.975Z,10.80
2023-05-09T20:21:00.906Z,19.60
2023-05-09T20:23:28.391Z,17.80
2023-05-09T20:25:55.636Z,20.00
2023-05-09T20:28:22.892Z,27.70
2023-05-09T20:30:49.840Z,22.50
2023-05-09T20:33:17.058Z,20.50
2023-05-09T20:35:43.993Z,26.00
2023-05-09T20:38:11.289Z,23.80
2023-05-09T20:40:38.098Z,26.70
2023-05-09T20:43:04.959Z,27.20
2023-05-09T20:45:31.964Z,32.40
2023-05-09T20:47:58.881Z,29.70
2023-05-09T20:50:25.896Z,24.60
2023-05-09T20:52:52.744Z,20.50
2023-05-09T20:55:21.087Z,22.90
2023-05-09T20:57:48.067Z,25.10
2023-05-09T21:00:15.566Z,23.80
2023-05-09T21:02:42.884Z,21.40
2023-05-09T21:05:09.932Z,35.90
2023-05-09T21:07:36.868Z,31.30
2023-05-09T21:10:03.934Z,31.20
2023-05-09T21:12:32.259Z,36.80
2023-05-09T21:14:59.052Z,41.90
2023-05-09T21:17:25.836Z,43.40
2023-05-09T21:19:52.823Z,57.80
2023-05-09T21:22:19.804Z,42.30
2023-05-09T21:24:46.763Z,46.50
2023-05-09T21:27:14.113Z,31.10
2023-05-09T21:29:40.858Z,28.90
2023-05-09T21:32:07.562Z,19.10
2023-05-09T21:34:34.950Z,26.30
2023-05-09T21:37:01.706Z,18.80
2023-05-09T21:39:28.680Z,15.90
2023-05-09T21:41:55.469Z,23.10
2023-05-09T21:44:22.233Z,27.20
2023-05-09T21:46:49.160Z,22.80
2023-05-09T21:49:16.495Z,35.30
2023-05-09T21:51:43.396Z,36.50
2023-05-09T21:54:10.549Z,33.60
2023-05-09T21:56:37.392Z,38.80
2023-05-09T21:59:04.335Z,48.40
2023-05-09T22:01:31.359Z,41.60
2023-05-09T22:03:58.488Z,55.50
2023-05-09T22:06:25.471Z,43.60
2023-05-09T22:08:52.252Z,54.60
2023-05-09T22:11:19.978Z,49.90
2023-05-09T22:13:46.767Z,52.80
2023-05-09T22:16:13.527Z,60.50
2023-05-09T22:18:40.278Z,47.00
2023-05-09T22:21:07.185Z,57.00
2023-05-09T22:23:34.211Z,60.40
2023-05-09T22:26:01.040Z,50.50
2023-05-09T22:28:28.823Z,43.60
2023-05-09T22:30:55.619Z,45.30
2023-05-09T22:33:22.409Z,43.50
2023-05-09T22:35:49.471Z,41.50
2023-05-09T22:38:16.327Z,42.50
2023-05-09T22:40:43.252Z,40.00
2023-05-09T22:43:10.628Z,32.90
2023-05-09T22:45:37.623Z,32.80
2023-05-09T22:48:05.429Z,34.60
2023-05-09T22:50:32.245Z,37.20
2023-05-09T22:52:58.911Z,29.50
2023-05-09T22:55:25.720Z,25.80
2023-05-09T22:57:52.630Z,32.70
2023-05-09T23:00:19.703Z,24.10
2023-05-09T23:02:46.504Z,21.20
2023-05-09T23:05:13.422Z,25.30
2023-05-09T23:07:40.345Z,19.70
2023-05-09T23:10:07.790Z,17.70
2023-05-09T23:12:34.593Z,24.10
2023-05-09T23:15:01.457Z,20.70
2023-05-09T23:17:28.782Z,20.60
2023-05-09T23:19:55.969Z,22.00
2023-05-09T23:22:23.261Z,18.80
2023-05-09T23:24:50.316Z,20.40
2023-05-09T23:27:17.091Z,20.70
2023-05-09T23:29:43.934Z,17.60
2023-05-09T23:32:10.723Z,26.00
2023-05-09T23:34:38.285Z,25.30
2023-05-09T23:37:05.047Z,17.50
2023-05-09T23:39:32.411Z,14.70
2023-05-09T23:41:59.251Z,15.60
2023-05-09T23:44:26.120Z,18.30
2023-05-09T23:46:53.109Z,18.10
2023-05-09T23:49:20.252Z,21.40
2023-05-09T23:51:47.323Z,23.30
2023-05-09T23:54:15.937Z,16.20
2023-05-09T23:56:43.154Z,17.10
2023-05-09T23:59:09.940Z,18.30
